Ana Sayfa
METAR-TAF:

METAR-TAF

Havaalanları :

Georgetown Municipal Airport

Georgetown, Teksas, Amerika Birleşik Devletleri

Enlem: 30-41N, Boylam: 097-41W, yükseklik: 240 m

Güncel hava durumu gözlemi

Rapor saat 18:31 UTC de 23 dakika önce yapıldı.
Rüzgar kuzeydan 9 kt
Sıcaklık 8°C
Nem 93%
Basınç 1026 hPa
Görüş mesafesi: 6.4 km
700 ft yükseklikte çok bulutlu
hafif yağmur, Pus

METAR: KGTU 191831Z 35009KT 4SM -RA BR OVC007 08/07 A3029 RMK AO2 CIG 004V010 P0000

Saat: 12:54 (18:54 UTC)


TAF: eksik

4.000'den fazla havaalanı için hava durumu gözlemleri ve tahminleri (METAR ve TAF raporları).

Kullanılabilir istasyonlar harita üzerinde sarı ve kırmızı noktalarla gösterilir.

İstasyonun adını görmek için fareyi noktanın üzerinde gezdirin.

Sonrasında hava gözlem ve tahminlerini görmek için tıklayın.

Haritayı değiştirmek için: yaklaştırmak için siyah artı işaretli yeşil düğmeye ve uzaklaştırmak için de eksi işaretli düğmeye hızla tıklayın; bitişik haritalar için yeşil okları kullanın.


METAR-TAF: